Time;durP1;ratioP1;P1;durP2;ratioP2;P2;SDS_P1;SDS_P2;PMS_P1;PMS_P2;Temp;Humidity;BMP_temperature;BMP_pressure;BME280_temperature;BME280_humidity;BME280_pressure;Samples;Min_cycle;Max_cycle;Signal;HPM_P1;HPM_P2
2024/01/23 00:01:46;;;;;;;26.93;11.87;;;;;;;-1.35;82.72;101770.27;124142;1099;105252;-78
2024/01/23 00:04:17;;;;;;;26.97;12.23;;;;;;;-1.36;82.96;101771.02;124067;1099;104242;-78
2024/01/23 00:06:49;;;;;;;26.57;11.73;;;;;;;-1.37;83.02;101756.30;123807;1099;104373;-78
2024/01/23 00:09:20;;;;;;;28.93;12.40;;;;;;;-1.39;82.37;101765.55;123807;1099;104323;-77
2024/01/23 00:11:51;;;;;;;25.03;11.47;;;;;;;-1.39;83.58;101762.97;123654;1099;104274;-78
2024/01/23 00:14:22;;;;;;;26.27;11.93;;;;;;;-1.41;83.09;101759.34;123569;1099;104283;-79
2024/01/23 00:16:53;;;;;;;26.30;11.40;;;;;;;-1.43;82.73;101761.75;123636;1099;104271;-78
2024/01/23 00:19:24;;;;;;;28.55;13.40;;;;;;;-1.45;83.31;101753.88;123547;1099;104316;-78
2024/01/23 00:21:56;;;;;;;26.50;12.10;;;;;;;-1.45;83.14;101752.94;123799;1098;104258;-78
2024/01/23 00:24:27;;;;;;;28.97;12.60;;;;;;;-1.47;82.73;101750.20;123792;1099;104351;-80
2024/01/23 00:26:59;;;;;;;29.13;13.00;;;;;;;-1.50;83.05;101743.84;123555;1098;104290;-79
2024/01/23 00:29:30;;;;;;;29.03;12.77;;;;;;;-1.52;83.20;101746.25;123601;1098;104249;-78
2024/01/23 00:32:02;;;;;;;31.47;13.57;;;;;;;-1.53;83.29;101746.98;123594;1099;104366;-77
2024/01/23 00:34:34;;;;;;;29.00;13.20;;;;;;;-1.53;82.18;101738.37;123818;1099;104307;-80
2024/01/23 00:37:05;;;;;;;29.10;12.40;;;;;;;-1.56;83.18;101733.80;123634;1099;104290;-78
2024/01/23 00:39:40;;;;;;;29.90;13.33;;;;;;;-1.56;82.88;101738.05;123620;1099;104221;-78
2024/01/23 00:42:11;;;;;;;28.00;12.83;;;;;;;-1.55;82.22;101733.06;123542;1099;104361;-78
2024/01/23 00:44:42;;;;;;;30.65;12.85;;;;;;;-1.58;82.55;101725.02;123459;1099;104346;-77
2024/01/23 00:47:15;;;;;;;26.15;11.70;;;;;;;-1.58;83.19;101718.97;123551;1099;104351;-78
2024/01/23 00:49:46;;;;;;;25.07;11.00;;;;;;;-1.58;82.93;101726.70;123711;1099;104261;-77
2024/01/23 00:52:17;;;;;;;26.93;11.73;;;;;;;-1.59;82.77;101720.64;123696;1099;104344;-78
2024/01/23 00:54:48;;;;;;;25.83;11.87;;;;;;;-1.59;82.60;101723.22;123524;1099;104322;-78
2024/01/23 00:57:19;;;;;;;27.77;12.23;;;;;;;-1.58;82.75;101721.55;123444;1099;104338;-77
2024/01/23 00:59:50;;;;;;;25.73;11.53;;;;;;;-1.58;82.63;101721.55;123435;1098;104339;-78
2024/01/23 01:02:21;;;;;;;27.05;12.15;;;;;;;-1.59;82.28;101709.41;123392;1099;104351;-78
2024/01/23 01:04:52;;;;;;;25.55;10.85;;;;;;;-1.60;82.15;101711.09;123505;1099;104408;-78
2024/01/23 01:07:23;;;;;;;25.83;10.77;;;;;;;-1.60;83.18;101707.62;123571;1099;104318;-78
2024/01/23 01:09:55;;;;;;;27.43;12.30;;;;;;;-1.61;82.45;101703.20;123436;1099;104517;-79
2024/01/23 01:12:26;;;;;;;29.37;11.97;;;;;;;-1.63;83.10;101700.48;123283;1099;104282;-78
2024/01/23 01:14:57;;;;;;;23.97;10.40;;;;;;;-1.63;82.50;101703.95;123473;1099;104826;-78
2024/01/23 01:17:28;;;;;;;24.83;11.93;;;;;;;-1.64;83.07;101693.49;123479;1099;104211;-78
2024/01/23 01:20:00;;;;;;;25.87;12.03;;;;;;;-1.66;82.90;101690.77;123494;1099;104320;-78
2024/01/23 01:22:31;;;;;;;24.70;11.60;;;;;;;-1.69;82.84;101675.00;123527;1099;104348;-77
2024/01/23 01:25:02;;;;;;;28.87;12.73;;;;;;;-1.69;81.93;101676.67;123448;1099;104313;-78
2024/01/23 01:27:34;;;;;;;26.10;11.20;;;;;;;-1.70;82.61;101672.27;123503;1099;104271;-79
2024/01/23 01:30:08;;;;;;;24.27;10.80;;;;;;;-1.72;81.82;101674.69;123522;1099;104283;-79
2024/01/23 01:32:39;;;;;;;26.82;11.43;;;;;;;-1.71;82.65;101671.38;123677;1099;104322;-78
2024/01/23 01:35:10;;;;;;;25.40;11.57;;;;;;;-1.72;82.04;101666.06;123712;1099;104345;-78
2024/01/23 01:37:41;;;;;;;24.10;11.23;;;;;;;-1.71;82.26;101665.33;123526;1098;104285;-78
2024/01/23 01:40:15;;;;;;;28.00;11.27;;;;;;;-1.71;82.20;101666.22;123516;1099;104281;-78
2024/01/23 01:42:48;;;;;;;24.60;11.23;;;;;;;-1.70;81.81;101659.41;123519;1099;104319;-78
2024/01/23 01:45:19;;;;;;;26.85;11.80;;;;;;;-1.70;82.30;101659.41;123512;1098;104265;-78
2024/01/23 01:47:51;;;;;;;25.73;11.77;;;;;;;-1.71;81.65;101655.03;123435;1099;104329;-78
2024/01/23 01:50:23;;;;;;;27.43;11.33;;;;;;;-1.73;82.04;101653.94;123657;1099;104272;-78
2024/01/23 01:52:54;;;;;;;24.33;10.60;;;;;;;-1.73;81.82;101654.88;124268;1099;104273;-78
2024/01/23 01:55:25;;;;;;;25.90;11.33;;;;;;;-1.71;82.20;101655.03;123620;1099;104347;-78
2024/01/23 01:57:57;;;;;;;24.80;11.30;;;;;;;-1.71;81.57;101657.60;123714;1099;104274;-78
2024/01/23 02:00:28;;;;;;;22.73;9.87;;;;;;;-1.72;82.15;101655.77;123748;1099;104386;-78
2024/01/23 02:03:00;;;;;;;25.10;11.37;;;;;;;-1.73;81.77;101651.36;123462;1099;104274;-78
2024/01/23 02:05:31;;;;;;;24.33;11.43;;;;;;;-1.74;82.37;101647.89;124143;1099;104277;-79
2024/01/23 02:08:03;;;;;;;23.25;10.70;;;;;;;-1.75;82.08;101647.73;123781;1099;104272;-78
2024/01/23 02:10:34;;;;;;;24.37;10.87;;;;;;;-1.76;81.71;101653.63;123823;1099;104393;-78
2024/01/23 02:13:06;;;;;;;25.60;11.47;;;;;;;-1.77;81.89;101651.83;123828;1098;104390;-78
2024/01/23 02:15:37;;;;;;;25.77;11.17;;;;;;;-1.77;81.97;101645.00;123629;1098;104414;-78
2024/01/23 02:18:08;;;;;;;25.50;11.23;;;;;;;-1.75;82.51;101643.48;123831;1099;104275;-78
2024/01/23 02:20:40;;;;;;;26.13;11.07;;;;;;;-1.74;82.38;101649.56;123884;1099;104267;-78
2024/01/23 02:23:14;;;;;;;24.70;9.93;;;;;;;-1.73;81.01;101646.22;123994;1099;104347;-79
2024/01/23 02:25:46;;;;;;;24.83;11.03;;;;;;;-1.74;82.09;101640.17;124119;1099;104357;-78
2024/01/23 02:28:17;;;;;;;27.63;11.63;;;;;;;-1.73;81.81;101635.92;123551;1099;104345;-78
2024/01/23 02:30:48;;;;;;;24.90;10.87;;;;;;;-1.72;81.14;101632.61;123744;1099;104280;-77
2024/01/23 02:33:19;;;;;;;22.20;9.73;;;;;;;-1.71;81.41;101621.58;123864;1099;104396;-78
2024/01/23 02:35:53;;;;;;;24.50;9.97;;;;;;;-1.71;82.12;101625.05;123546;1099;104271;-77
2024/01/23 02:38:24;;;;;;;23.67;10.23;;;;;;;-1.71;81.58;101621.58;123534;1099;104331;-77
2024/01/23 02:40:56;;;;;;;24.00;10.13;;;;;;;-1.71;81.87;101616.43;123705;1099;104281;-77
2024/01/23 02:43:27;;;;;;;22.90;10.03;;;;;;;-1.71;81.10;101608.70;123595;1099;104268;-78
2024/01/23 02:45:58;;;;;;;28.60;9.83;;;;;;;-1.70;81.70;101610.50;123622;1099;104332;-77
2024/01/23 02:48:29;;;;;;;22.23;9.13;;;;;;;-1.71;81.12;101612.18;123767;1099;104280;-78
2024/01/23 02:51:00;;;;;;;24.23;10.80;;;;;;;-1.72;81.41;101609.45;123534;1099;104326;-78
2024/01/23 02:53:31;;;;;;;23.37;10.30;;;;;;;-1.72;81.39;101612.02;123459;1099;104328;-78
2024/01/23 02:56:03;;;;;;;24.27;10.27;;;;;;;-1.72;81.66;101605.20;123523;1099;104296;-79
2024/01/23 02:58:35;;;;;;;21.97;10.60;;;;;;;-1.72;81.18;101605.20;123525;1099;104249;-79
2024/01/23 03:01:06;;;;;;;24.60;10.67;;;;;;;-1.72;81.32;101594.01;123455;1099;104273;-78
2024/01/23 03:03:37;;;;;;;24.00;10.80;;;;;;;-1.72;81.79;101599.16;123544;1099;104194;-77
2024/01/23 03:06:09;;;;;;;24.00;11.00;;;;;;;-1.73;81.77;101599.89;123417;1099;104312;-78
2024/01/23 03:08:40;;;;;;;23.93;10.90;;;;;;;-1.72;81.27;101604.30;123551;1099;105502;-78
2024/01/23 03:11:11;;;;;;;23.07;10.53;;;;;;;-1.73;81.70;101605.05;123616;1099;104315;-77
2024/01/23 03:13:42;;;;;;;21.87;10.23;;;;;;;-1.73;81.78;101605.05;123600;1099;104255;-77
2024/01/23 03:16:13;;;;;;;22.50;10.30;;;;;;;-1.74;81.34;101598.09;123705;1099;104344;-78
2024/01/23 03:18:45;;;;;;;20.80;9.30;;;;;;;-1.75;80.78;101591.12;123373;1099;104229;-77
2024/01/23 03:21:16;;;;;;;24.60;10.35;;;;;;;-1.76;81.32;101591.86;123494;1099;104351;-77
2024/01/23 03:23:47;;;;;;;24.33;10.87;;;;;;;-1.77;81.87;101592.64;123419;1099;104351;-77
2024/01/23 03:26:19;;;;;;;23.63;9.67;;;;;;;-1.78;80.80;101586.56;123420;1099;104283;-77
2024/01/23 03:28:50;;;;;;;22.60;9.73;;;;;;;-1.78;81.22;101589.13;123560;1098;104267;-78
2024/01/23 03:31:21;;;;;;;24.00;10.43;;;;;;;-1.80;80.89;101580.36;123208;1099;104274;-77
2024/01/23 03:33:52;;;;;;;22.73;9.70;;;;;;;-1.80;80.84;101577.78;123445;1099;104229;-78
2024/01/23 03:36:24;;;;;;;20.63;9.63;;;;;;;-1.81;81.70;101574.31;123675;1099;104198;-78
2024/01/23 03:38:55;;;;;;;22.40;9.90;;;;;;;-1.81;80.64;101570.81;123278;1099;104277;-78
2024/01/23 03:41:26;;;;;;;22.63;10.67;;;;;;;-1.81;80.87;101568.23;123560;1099;104366;-78
2024/01/23 03:43:58;;;;;;;21.87;9.50;;;;;;;-1.81;81.21;101566.59;124053;1099;104403;-79
2024/01/23 03:46:30;;;;;;;22.87;9.60;;;;;;;-1.79;81.06;101568.39;123341;1099;104326;-78
2024/01/23 03:49:01;;;;;;;20.20;8.50;;;;;;;-1.79;81.33;101560.67;124451;1098;104643;-79
2024/01/23 03:51:32;;;;;;;21.23;9.30;;;;;;;-1.77;81.63;101559.19;123670;1099;104348;-79
2024/01/23 03:54:03;;;;;;;22.73;10.20;;;;;;;-1.75;80.68;101560.24;123708;1099;104323;-78
2024/01/23 03:56:34;;;;;;;22.83;9.30;;;;;;;-1.74;81.31;101556.92;123388;1098;104224;-78
2024/01/23 03:59:05;;;;;;;22.97;9.50;;;;;;;-1.73;81.03;101549.36;123977;1099;104332;-78
2024/01/23 04:01:37;;;;;;;20.80;9.33;;;;;;;-1.72;81.60;101553.73;123669;1099;104290;-77
2024/01/23 04:04:08;;;;;;;22.53;9.40;;;;;;;-1.70;81.16;101551.31;123522;1099;104348;-78
2024/01/23 04:06:39;;;;;;;22.90;10.10;;;;;;;-1.68;81.76;101550.73;123453;1099;104325;-78
2024/01/23 04:09:10;;;;;;;22.20;9.90;;;;;;;-1.65;81.23;101547.56;123310;1099;104309;-79
2024/01/23 04:11:45;;;;;;;21.97;9.27;;;;;;;-1.63;81.75;101546.05;123699;1099;104245;-79
2024/01/23 04:14:16;;;;;;;22.70;9.60;;;;;;;-1.60;81.67;101543.78;123564;1099;104242;-78
2024/01/23 04:16:47;;;;;;;21.73;9.80;;;;;;;-1.58;81.21;101538.78;123634;1099;104222;-78
2024/01/23 04:19:18;;;;;;;20.55;9.10;;;;;;;-1.55;81.31;101536.52;123490;1099;104399;-78
2024/01/23 04:21:49;;;;;;;22.40;9.43;;;;;;;-1.53;82.04;101527.27;123221;1099;104364;-79
2024/01/23 04:24:21;;;;;;;23.07;9.73;;;;;;;-1.49;81.88;101532.89;123177;1099;104415;-77
2024/01/23 04:26:52;;;;;;;23.23;9.03;;;;;;;-1.46;81.33;101530.62;123194;1099;104241;-77
2024/01/23 04:29:23;;;;;;;20.50;8.93;;;;;;;-1.43;80.63;101536.82;123640;1099;104252;-78
2024/01/23 04:31:54;;;;;;;19.57;8.23;;;;;;;-1.41;81.53;101525.03;123611;1099;104514;-78
2024/01/23 04:34:25;;;;;;;19.53;9.33;;;;;;;-1.40;81.51;101530.34;123857;1099;104402;-78
2024/01/23 04:36:56;;;;;;;21.47;9.47;;;;;;;-1.37;81.67;101532.28;123596;1099;104226;-78
2024/01/23 04:39:28;;;;;;;20.27;9.07;;;;;;;-1.36;80.56;101528.97;123384;1099;104258;-79
2024/01/23 04:41:59;;;;;;;20.20;8.67;;;;;;;-1.35;81.77;101531.70;123563;1099;104366;-77
2024/01/23 04:44:31;;;;;;;21.83;9.03;;;;;;;-1.33;81.54;101531.84;123808;1099;104303;-78
2024/01/23 04:47:02;;;;;;;22.53;9.70;;;;;;;-1.34;81.24;101538.67;123603;1099;104684;-78
2024/01/23 04:49:33;;;;;;;21.33;8.63;;;;;;;-1.33;80.63;101526.70;123958;1099;104261;-78
2024/01/23 04:52:05;;;;;;;22.50;9.65;;;;;;;-1.31;81.57;101532.89;123874;1099;104357;-78
2024/01/23 04:54:36;;;;;;;22.30;9.50;;;;;;;-1.31;81.48;101530.32;123283;1099;104379;-78
2024/01/23 04:57:07;;;;;;;20.20;8.53;;;;;;;-1.30;80.49;101529.58;123578;1099;104377;-78
2024/01/23 04:59:38;;;;;;;19.10;9.10;;;;;;;-1.30;80.96;101535.63;123171;1099;104644;-77
2024/01/23 05:02:10;;;;;;;20.93;9.50;;;;;;;-1.29;80.95;101534.87;123734;1099;104294;-77
2024/01/23 05:04:41;;;;;;;21.27;8.97;;;;;;;-1.31;81.13;101526.10;123549;1099;104241;-79
2024/01/23 05:07:12;;;;;;;22.93;9.60;;;;;;;-1.31;80.21;101523.53;123624;1099;104223;-78
2024/01/23 05:09:43;;;;;;;20.50;9.27;;;;;;;-1.32;81.25;101518.22;123301;1099;104322;-78
2024/01/23 05:12:14;;;;;;;19.80;8.73;;;;;;;-1.32;80.21;101524.27;123315;1099;107003;-78
2024/01/23 05:14:46;;;;;;;21.07;8.93;;;;;;;-1.32;80.83;101528.52;123434;1099;104427;-78
2024/01/23 05:17:17;;;;;;;19.03;9.07;;;;;;;-1.32;81.25;101531.10;123827;1099;104271;-78
2024/01/23 05:19:48;;;;;;;21.83;8.80;;;;;;;-1.32;80.95;101532.00;123708;1099;104300;-78
2024/01/23 05:22:19;;;;;;;21.80;8.90;;;;;;;-1.30;80.77;101533.05;123615;1098;118989;-78
2024/01/23 05:24:50;;;;;;;19.67;8.80;;;;;;;-1.25;81.06;101535.19;123632;1099;104705;-79
2024/01/23 05:27:21;;;;;;;18.47;7.73;;;;;;;-1.23;80.68;101539.74;123919;1099;104300;-78
2024/01/23 05:29:53;;;;;;;19.87;8.33;;;;;;;-1.22;81.08;101531.23;124233;1099;104240;-78
2024/01/23 05:32:24;;;;;;;22.63;9.53;;;;;;;-1.21;80.33;101533.06;123797;1099;104376;-78
2024/01/23 05:34:55;;;;;;;20.20;8.47;;;;;;;-1.20;80.91;101526.23;123817;1099;104379;-78
2024/01/23 05:37:26;;;;;;;21.37;8.50;;;;;;;-1.18;80.89;101523.06;123828;1099;104281;-78
2024/01/23 05:39:57;;;;;;;20.33;8.73;;;;;;;-1.18;80.75;101523.06;123678;1099;104255;-78
2024/01/23 05:42:29;;;;;;;19.77;8.63;;;;;;;-1.18;80.13;101512.77;123679;1099;104299;-79
2024/01/23 05:45:00;;;;;;;20.53;9.23;;;;;;;-1.19;80.57;101510.03;123842;1099;104341;-79
2024/01/23 05:47:31;;;;;;;20.63;8.40;;;;;;;-1.20;80.25;101509.14;123911;1099;104360;-78
2024/01/23 05:50:03;;;;;;;21.60;8.57;;;;;;;-1.19;80.54;101510.94;124101;1099;104220;-79
2024/01/23 05:52:34;;;;;;;24.20;9.93;;;;;;;-1.20;80.04;101513.36;123867;1099;104301;-78
2024/01/23 05:55:05;;;;;;;21.37;9.57;;;;;;;-1.20;80.24;101510.78;123874;1098;104268;-78
2024/01/23 05:57:37;;;;;;;26.40;11.97;;;;;;;-1.19;80.61;101518.66;124188;1099;104214;-79
2024/01/23 06:00:13;;;;;;;26.30;11.53;;;;;;;-1.18;81.13;101515.34;123850;1099;104895;-78
2024/01/23 06:02:44;;;;;;;27.30;11.67;;;;;;;-1.15;80.20;101513.06;123901;1099;104191;-78
2024/01/23 06:05:15;;;;;;;25.97;10.63;;;;;;;-1.13;81.14;101511.54;124038;1099;104274;-78
2024/01/23 06:07:49;;;;;;;22.07;9.37;;;;;;;-1.06;80.50;101517.30;123902;1099;104248;-78
2024/01/23 06:10:21;;;;;;;21.00;9.18;;;;;;;-1.02;81.28;101520.33;124383;1099;105905;-77
2024/01/23 06:12:52;;;;;;;21.20;8.47;;;;;;;-0.96;81.26;101512.30;123934;1099;104248;-77
2024/01/23 06:15:23;;;;;;;21.17;9.03;;;;;;;-0.89;80.75;101506.06;124117;1099;104290;-77
2024/01/23 06:17:55;;;;;;;19.87;8.37;;;;;;;-0.80;80.51;101517.27;124273;1099;104220;-78
2024/01/23 06:20:26;;;;;;;20.80;9.53;;;;;;;-0.70;80.57;101516.48;124444;1099;104226;-76
2024/01/23 06:22:57;;;;;;;21.83;9.40;;;;;;;-0.60;80.36;101512.38;124177;1098;104169;-76
2024/01/23 06:25:29;;;;;;;21.43;9.70;;;;;;;-0.53;80.33;101508.73;124391;1098;103249;-75
2024/01/23 06:28:01;;;;;;;23.23;9.50;;;;;;;-0.49;80.42;101500.52;124117;1099;102559;-77
2024/01/23 06:30:32;;;;;;;21.73;9.40;;;;;;;-0.43;80.77;101508.84;124238;1099;102251;-76
2024/01/23 06:33:04;;;;;;;20.33;8.70;;;;;;;-0.39;80.24;101513.53;124852;1099;104252;-76
2024/01/23 06:35:36;;;;;;;22.63;9.10;;;;;;;-0.35;80.49;101509.57;124391;1098;104331;-76
2024/01/23 06:38:07;;;;;;;20.80;9.30;;;;;;;-0.35;80.38;101506.98;124887;1099;104485;-76
2024/01/23 06:40:38;;;;;;;19.80;9.30;;;;;;;-0.36;79.38;101505.16;125233;1099;104280;-77
2024/01/23 06:43:10;;;;;;;20.83;8.77;;;;;;;-0.38;79.28;101504.12;124305;1099;104204;-76
2024/01/23 06:45:41;;;;;;;17.17;7.90;;;;;;;-0.39;79.81;101512.61;124506;1099;105887;-76
2024/01/23 06:48:13;;;;;;;23.10;9.30;;;;;;;-0.42;79.23;101509.73;124430;1099;102510;-75
2024/01/23 06:50:45;;;;;;;23.13;8.97;;;;;;;-0.44;79.75;101514.74;124197;1099;104418;-75
2024/01/23 06:53:16;;;;;;;22.07;9.07;;;;;;;-0.47;79.43;101524.77;124327;1099;104192;-75
2024/01/23 06:55:51;;;;;;;21.93;9.90;;;;;;;-0.46;79.63;101525.70;124500;1099;104224;-75
2024/01/23 06:58:22;;;;;;;21.60;9.33;;;;;;;-0.47;79.75;101529.92;124205;1099;104179;-74
2024/01/23 07:00:53;;;;;;;22.27;9.00;;;;;;;-0.45;80.02;101537.80;124078;1099;102041;-75
2024/01/23 07:03:24;;;;;;;22.13;9.50;;;;;;;-0.44;80.00;101532.80;124632;1098;104245;-75
2024/01/23 07:05:56;;;;;;;19.57;9.10;;;;;;;-0.42;79.49;101539.03;124833;1099;102716;-74
2024/01/23 07:08:28;;;;;;;22.00;9.47;;;;;;;-0.41;79.87;101537.34;124941;1099;104329;-73
2024/01/23 07:10:59;;;;;;;23.37;9.33;;;;;;;-0.41;79.28;101533.09;124900;1098;103169;-74
2024/01/23 07:13:30;;;;;;;20.10;9.17;;;;;;;-0.39;79.87;101535.81;124865;1099;104248;-76
2024/01/23 07:16:01;;;;;;;19.97;8.40;;;;;;;-0.37;79.42;101532.63;124721;1099;103344;-75
2024/01/23 07:18:34;;;;;;;23.03;9.33;;;;;;;-0.37;79.73;101527.47;124495;1099;104337;-74
2024/01/23 07:21:06;;;;;;;22.17;9.93;;;;;;;-0.32;79.61;101525.34;124682;1099;103341;-76
2024/01/23 07:23:37;;;;;;;22.17;9.60;;;;;;;-0.25;80.44;101527.75;124772;1099;104217;-74
2024/01/23 07:26:09;;;;;;;21.60;8.53;;;;;;;-0.14;80.24;101525.26;124476;1099;104220;-75
2024/01/23 07:28:40;;;;;;;23.63;9.87;;;;;;;-0.07;79.90;101530.25;124422;1099;103973;-75
2024/01/23 07:31:12;;;;;;;21.13;8.97;;;;;;;-0.02;80.30;101522.19;124783;1099;102791;-74
2024/01/23 07:33:44;;;;;;;21.50;9.73;;;;;;;0.06;79.88;101521.98;124807;1099;104275;-75
2024/01/23 07:36:15;;;;;;;24.87;10.63;;;;;;;0.12;79.55;101519.98;124721;1099;104269;-75
2024/01/23 07:38:46;;;;;;;19.93;9.23;;;;;;;0.23;79.91;101518.41;124656;1099;104316;-74
2024/01/23 07:41:17;;;;;;;22.03;10.47;;;;;;;0.34;79.74;101505.73;124774;1099;104252;-75
2024/01/23 07:43:49;;;;;;;22.70;10.30;;;;;;;0.47;80.15;101499.13;124110;1099;104249;-74
2024/01/23 07:46:20;;;;;;;21.50;9.97;;;;;;;0.60;79.39;101506.31;124576;1099;103799;-74
2024/01/23 07:48:57;;;;;;;23.33;10.37;;;;;;;0.73;79.41;101513.50;124496;1099;104235;-75
2024/01/23 07:51:29;;;;;;;22.77;10.53;;;;;;;0.85;79.45;101512.93;124468;1099;104270;-76
2024/01/23 07:54:02;;;;;;;22.90;10.53;;;;;;;0.97;80.55;101515.73;124382;1099;104357;-73
2024/01/23 07:56:32;;;;;;;;;;;;;;;1.03;78.85;101525.73;124391;1098;104294;-74
2024/01/23 07:59:03;;;;;;;25.30;10.93;;;;;;;1.12;79.78;101521.35;124521;1099;102807;-75
2024/01/23 08:01:36;;;;;;;23.87;10.73;;;;;;;1.25;80.07;101525.97;124585;1098;104807;-76
2024/01/23 08:04:07;;;;;;;21.33;10.17;;;;;;;1.35;78.78;101525.10;124689;1099;104162;-76
2024/01/23 08:06:39;;;;;;;21.60;9.97;;;;;;;1.41;79.03;101526.55;125173;1099;104284;-76
2024/01/23 08:09:10;;;;;;;23.63;9.70;;;;;;;1.49;79.82;101524.64;124784;1099;102391;-76
2024/01/23 08:11:43;;;;;;;24.23;10.40;;;;;;;1.59;79.64;101522.10;124931;1099;104248;-75
2024/01/23 08:14:16;;;;;;;21.83;10.20;;;;;;;1.68;79.17;101516.80;124968;1099;104165;-76
2024/01/23 08:16:47;;;;;;;22.20;10.07;;;;;;;1.80;79.63;101523.05;124741;1099;102908;-75
2024/01/23 08:19:19;;;;;;;23.03;10.53;;;;;;;1.91;78.99;101518.81;124876;1099;101998;-76
2024/01/23 08:21:52;;;;;;;20.93;10.27;;;;;;;2.00;79.56;101510.95;124534;1099;104338;-76
2024/01/23 08:24:23;;;;;;;22.90;10.87;;;;;;;2.07;78.78;101510.71;124676;1099;104092;-74
2024/01/23 08:26:56;;;;;;;22.33;10.80;;;;;;;2.13;79.59;101508.61;124475;1099;104159;-75
2024/01/23 08:29:28;;;;;;;23.85;10.65;;;;;;;2.22;79.67;101508.50;124618;1098;104169;-76
2024/01/23 08:31:59;;;;;;;23.15;11.20;;;;;;;2.27;79.53;101507.20;124512;1099;102607;-76
2024/01/23 08:34:32;;;;;;;22.57;10.03;;;;;;;2.36;79.07;101501.91;124423;1099;104233;-76
2024/01/23 08:37:04;;;;;;;23.33;11.30;;;;;;;2.45;79.44;101500.09;124739;1099;104241;-76
2024/01/23 08:39:37;;;;;;;22.37;10.60;;;;;;;2.56;79.41;101500.10;124883;1099;102123;-76
2024/01/23 08:42:16;;;;;;;23.37;10.33;;;;;;;2.67;79.11;101499.30;124729;1099;104271;-75
2024/01/23 08:44:50;;;;;;;21.10;9.25;;;;;;;2.72;78.27;101497.99;124719;1099;102988;-77
2024/01/23 08:47:24;;;;;;;22.40;10.30;;;;;;;2.83;78.60;101498.88;124709;1099;104269;-76
2024/01/23 08:50:01;;;;;;;21.97;9.13;;;;;;;2.93;78.03;101483.31;124765;1098;104303;-75
2024/01/23 08:52:32;;;;;;;23.60;10.50;;;;;;;3.01;78.77;101487.44;124613;1099;104288;-76
2024/01/23 08:55:04;;;;;;;22.60;10.57;;;;;;;3.10;78.45;101479.52;124938;1099;103084;-75
2024/01/23 08:57:35;;;;;;;24.03;10.77;;;;;;;3.18;78.23;101470.66;124721;1099;102342;-76
2024/01/23 09:00:09;;;;;;;19.67;9.33;;;;;;;3.24;77.88;101460.78;124969;1099;104061;-77
2024/01/23 09:02:40;;;;;;;21.52;10.18;;;;;;;3.28;78.12;101455.83;124323;1099;104390;-76
2024/01/23 09:05:14;;;;;;;22.10;10.90;;;;;;;3.33;78.49;101463.18;124620;1099;102905;-76
2024/01/23 09:07:45;;;;;;;21.27;8.73;;;;;;;3.41;76.31;101437.84;124849;1099;104169;-76
2024/01/23 09:10:17;;;;;;;22.23;10.57;;;;;;;3.43;77.92;101441.49;124808;1099;103406;-76
2024/01/23 09:12:51;;;;;;;;;;;;;;;3.38;77.98;101455.77;124629;1099;104201;-75
2024/01/23 09:15:25;;;;;;;19.20;9.23;;;;;;;3.39;78.27;101449.80;124583;1098;104271;-76
2024/01/23 09:18:05;;;;;;;21.40;10.23;;;;;;;3.33;78.06;101447.61;124234;1099;104169;-75
2024/01/23 09:20:37;;;;;;;22.00;10.30;;;;;;;3.26;78.17;101447.00;124597;1098;104242;-75
2024/01/23 09:23:08;;;;;;;20.73;9.90;;;;;;;3.16;77.28;101451.45;124469;1099;104281;-75
2024/01/23 09:25:39;;;;;;;22.07;9.60;;;;;;;3.10;77.61;101447.47;124616;1099;104366;-75
2024/01/23 09:28:14;;;;;;;21.63;10.67;;;;;;;3.16;77.98;101446.26;124688;1099;102908;-75
2024/01/23 09:30:46;;;;;;;22.70;10.63;;;;;;;3.27;78.08;101441.04;124358;1099;102968;-75
2024/01/23 09:33:17;;;;;;;23.13;10.63;;;;;;;3.27;77.98;101441.94;124936;1099;104380;-77
2024/01/23 09:35:53;;;;;;;23.57;10.37;;;;;;;3.26;77.44;101439.22;125336;1099;104313;-76
2024/01/23 09:38:25;;;;;;;23.77;10.43;;;;;;;3.29;77.40;101426.49;124923;1099;104373;-74
2024/01/23 09:40:56;;;;;;;23.03;10.27;;;;;;;3.23;76.84;101427.83;125077;1099;104173;-75
2024/01/23 09:43:29;;;;;;;21.67;10.03;;;;;;;3.22;77.32;101428.59;125063;1099;104205;-75
2024/01/23 09:46:03;;;;;;;19.93;9.07;;;;;;;3.22;76.72;101431.19;125135;1099;102748;-75
2024/01/23 09:48:38;;;;;;;23.77;9.73;;;;;;;3.26;76.62;101426.25;125215;1099;104303;-76
2024/01/23 09:51:14;;;;;;;22.00;10.35;;;;;;;3.34;77.73;101420.00;124965;1099;103108;-75
2024/01/23 09:53:45;;;;;;;21.23;10.30;;;;;;;3.40;76.14;101411.01;124828;1099;104226;-76
2024/01/23 09:56:18;;;;;;;23.37;10.83;;;;;;;3.50;77.12;101407.44;125201;1099;102960;-77
2024/01/23 09:58:52;;;;;;;22.23;9.67;;;;;;;3.57;76.28;101404.55;125078;1099;104370;-74
2024/01/23 10:01:31;;;;;;;24.40;9.70;;;;;;;3.63;75.80;101398.02;124589;1099;102827;-74
2024/01/23 10:04:04;;;;;;;25.30;10.13;;;;;;;3.68;76.11;101384.62;125120;1099;101943;-76
2024/01/23 10:06:35;;;;;;;20.60;9.40;;;;;;;3.77;76.80;101390.53;124954;1099;102748;-76
2024/01/23 10:09:07;;;;;;;18.87;8.97;;;;;;;3.81;76.21;101388.17;124672;1099;103295;-75
2024/01/23 10:11:39;;;;;;;20.47;9.67;;;;;;;3.84;76.26;101381.51;124877;1099;104747;-76
2024/01/23 10:14:13;;;;;;;21.53;8.30;;;;;;;3.89;76.62;101369.77;124431;1100;102503;-75
2024/01/23 10:16:43;;;;;;;;;;;;;;;3.95;75.70;101366.75;125136;1099;104300;-75
2024/01/23 10:19:15;;;;;;;20.97;8.83;;;;;;;4.00;76.90;101365.40;124602;1099;104245;-75
2024/01/23 10:21:46;;;;;;;19.97;8.50;;;;;;;4.01;76.32;101369.81;124902;1099;104185;-74
2024/01/23 10:24:17;;;;;;;19.20;8.67;;;;;;;4.02;76.45;101373.30;125212;1099;104242;-74
2024/01/23 10:26:50;;;;;;;19.37;8.37;;;;;;;4.02;76.41;101363.84;125317;1099;104220;-74
2024/01/23 10:29:22;;;;;;;18.40;8.53;;;;;;;3.99;75.25;101357.48;125315;1099;102294;-74
2024/01/23 10:31:58;;;;;;;19.70;8.37;;;;;;;4.01;76.20;101367.22;125445;1099;104166;-74
2024/01/23 10:34:31;;;;;;;18.83;7.70;;;;;;;4.00;74.71;101349.81;125262;1099;102114;-74
2024/01/23 10:37:03;;;;;;;17.50;8.13;;;;;;;4.04;75.77;101356.17;125416;1099;104245;-75
2024/01/23 10:39:35;;;;;;;19.67;8.17;;;;;;;4.04;74.88;101350.97;125006;1099;103992;-74
2024/01/23 10:42:09;;;;;;;19.73;8.43;;;;;;;4.04;74.84;101346.67;124968;1099;103285;-74
2024/01/23 10:44:41;;;;;;;19.47;7.77;;;;;;;4.01;74.34;101330.86;125156;1098;105046;-75
2024/01/23 10:47:14;;;;;;;18.70;7.80;;;;;;;3.98;74.74;101334.93;125086;1099;102288;-75
2024/01/23 10:49:47;;;;;;;14.33;7.30;;;;;;;3.92;73.62;101319.77;125319;1099;104316;-75
2024/01/23 10:52:19;;;;;;;16.83;7.03;;;;;;;3.86;73.18;101330.59;125069;1098;104281;-75
2024/01/23 10:54:56;;;;;;;16.10;7.17;;;;;;;3.84;74.79;101337.38;125001;1099;104296;-75
2024/01/23 10:57:31;;;;;;;18.03;7.63;;;;;;;3.83;73.95;101339.85;125079;1099;104184;-76
2024/01/23 11:00:13;;;;;;;17.73;7.03;;;;;;;3.83;74.50;101329.47;125039;1099;104171;-75
2024/01/23 11:03:05;;;;;;;16.17;6.47;;;;;;;3.85;73.74;101321.02;125216;1099;104217;-76
2024/01/23 11:05:44;;;;;;;17.53;8.00;;;;;;;3.85;74.57;101323.61;125520;1098;102031;-74
2024/01/23 11:08:22;;;;;;;16.65;7.10;;;;;;;3.89;73.92;101307.45;124592;1099;103087;-73
2024/01/23 11:10:58;;;;;;;15.80;7.13;;;;;;;3.94;74.71;101315.59;125594;1099;104322;-74
2024/01/23 11:13:38;;;;;;;17.37;7.70;;;;;;;4.02;74.85;101322.29;125460;1099;104274;-75
2024/01/23 11:16:10;;;;;;;16.80;7.33;;;;;;;4.10;75.00;101308.17;125488;1099;104169;-75
2024/01/23 11:18:42;;;;;;;17.50;7.60;;;;;;;4.18;74.13;101310.45;125850;1099;104589;-74
2024/01/23 11:21:17;;;;;;;18.07;7.93;;;;;;;4.22;73.69;101315.95;125322;1099;103648;-75
2024/01/23 11:24:01;;;;;;;18.00;8.07;;;;;;;4.26;73.89;101311.91;125307;1099;104223;-75